Time;durP1;ratioP1;P1;durP2;ratioP2;P2;SDS_P1;SDS_P2;PMS_P1;PMS_P2;Temp;Humidity;BMP_temperature;BMP_pressure;BME280_temperature;BME280_humidity;BME280_pressure;Samples;Min_cycle;Max_cycle;Signal;HPM_P1;HPM_P2
2023/06/02 00:01:28;;;;;;;;;20.33;20.33;;;;;16.85;92.76;99246.13;6282211;20;3569098;-48
2023/06/02 00:03:59;;;;;;;;;26.00;24.67;;;;;16.57;94.22;99236.13;6278007;20;3591998;-46
2023/06/02 00:06:30;;;;;;;;;28.67;26.00;;;;;16.47;94.16;99230.69;6312147;20;3604540;-50
2023/06/02 00:09:00;;;;;;;;;32.33;26.67;;;;;16.44;95.04;99231.00;6282364;20;3589930;-46
2023/06/02 00:11:29;;;;;;;;;27.33;25.00;;;;;16.65;93.97;99230.84;6281046;20;3594015;-46
2023/06/02 00:13:57;;;;;;;;;21.67;21.67;;;;;16.58;94.38;99230.53;6284108;20;3585698;-48
2023/06/02 00:16:25;;;;;;;;;28.00;27.00;;;;;16.66;94.31;99227.13;6279449;20;3596198;-47
2023/06/02 00:18:56;;;;;;;;;25.00;24.33;;;;;16.71;94.77;99222.13;6283867;20;3592056;-46
2023/06/02 00:21:26;;;;;;;;;27.67;24.33;;;;;16.66;95.40;99227.13;6281638;20;3600425;-51
2023/06/02 00:23:55;;;;;;;;;28.00;25.00;;;;;17.04;93.98;99222.66;6278364;20;3596129;-51
2023/06/02 00:26:23;;;;;;;;;24.00;22.67;;;;;16.58;94.94;99224.28;6283548;20;3600385;-52
2023/06/02 00:28:51;;;;;;;;;24.67;23.00;;;;;16.70;94.17;99225.84;6282561;20;3587869;-49
2023/06/02 00:31:20;;;;;;;;;29.33;26.33;;;;;16.79;93.93;99224.97;6279414;20;3602537;-49
2023/06/02 00:33:49;;;;;;;;;26.67;26.67;;;;;16.90;92.25;99232.09;6276681;20;3590909;-46
2023/06/02 00:36:17;;;;;;;;;24.33;23.00;;;;;16.54;93.83;99225.59;6280252;20;3600384;-54
2023/06/02 00:38:45;;;;;;;;;28.00;28.00;;;;;16.65;94.41;99223.56;6279548;20;3588824;-47
2023/06/02 00:41:13;;;;;;;;;30.00;29.33;;;;;16.69;93.31;99226.81;6283278;20;3581661;-48
2023/06/02 00:43:42;;;;;;;;;29.00;25.00;;;;;16.67;93.86;99226.13;6281173;20;3609657;-50
2023/06/02 00:46:10;;;;;;;;;27.00;24.00;;;;;16.68;94.20;99219.69;6278949;20;3613816;-46
2023/06/02 00:48:39;;;;;;;;;29.67;27.67;;;;;16.65;94.46;99222.72;6279647;20;3584810;-49
2023/06/02 00:51:07;;;;;;;;;30.67;25.67;;;;;16.75;94.33;99223.53;6277959;20;3584630;-48
2023/06/02 00:53:36;;;;;;;;;30.33;26.67;;;;;16.74;93.71;99216.41;6279447;20;3583767;-46
2023/06/02 00:56:05;;;;;;;;;28.67;27.67;;;;;16.83;93.70;99212.00;6276420;20;3600374;-46
2023/06/02 00:58:37;;;;;;;;;24.67;23.33;;;;;16.97;93.44;99211.53;6278845;20;3594500;-48
2023/06/02 01:01:10;;;;;;;;;26.33;25.00;;;;;16.74;94.34;99224.53;6276141;20;3594025;-49
2023/06/02 01:03:43;;;;;;;;;27.00;25.67;;;;;16.92;94.30;99213.81;6278929;20;3604446;-49
2023/06/02 01:06:13;;;;;;;;;27.33;25.33;;;;;16.80;95.23;99223.16;6280027;20;3596102;-48
2023/06/02 01:08:44;;;;;;;;;32.67;31.67;;;;;16.79;95.90;99219.56;6277615;20;3594015;-47
2023/06/02 01:11:12;;;;;;;;;28.00;26.33;;;;;16.80;95.49;99215.88;6277316;20;3596140;-46
2023/06/02 01:13:41;;;;;;;;;27.00;24.00;;;;;16.64;95.91;99220.97;6279974;20;3583590;-49
2023/06/02 01:16:13;;;;;;;;;27.33;27.00;;;;;16.52;97.33;99216.72;6281751;20;3606624;-45
2023/06/02 01:18:49;;;;;;;;;25.00;22.67;;;;;16.61;98.31;99221.28;6281250;20;3579446;-48
2023/06/02 01:21:26;;;;;;;;;26.67;26.00;;;;;16.58;98.11;99218.84;6282100;20;3602341;-45
2023/06/02 01:23:57;;;;;;;;;26.00;24.67;;;;;16.59;98.00;99212.44;6275660;20;3589966;-47
2023/06/02 01:26:29;;;;;;;;;26.33;25.00;;;;;16.80;97.46;99215.03;6280527;20;3598244;-49
2023/06/02 01:28:57;;;;;;;;;26.67;24.00;;;;;16.71;97.45;99211.28;6282849;20;3585714;-47
2023/06/02 01:31:40;;;;;;;;;28.33;25.67;;;;;16.50;97.78;99208.72;6279705;20;3602392;-48
2023/06/02 01:34:19;;;;;;;;;31.67;27.00;;;;;16.20;97.02;99201.63;6275515;20;3580579;-51
2023/06/02 01:36:55;;;;;;;;;27.33;23.67;;;;;15.88;97.70;99208.16;6272738;20;3592039;-48
2023/06/02 01:39:27;;;;;;;;;28.67;25.67;;;;;16.15;98.11;99209.31;6275946;20;2856674;-49
2023/06/02 01:41:56;;;;;;;;;25.67;25.67;;;;;16.17;97.93;99207.34;6309554;20;3592990;-46
2023/06/02 01:44:26;;;;;;;;;25.67;25.00;;;;;16.01;98.46;99207.88;6276023;20;3590892;-47
2023/06/02 01:46:54;;;;;;;;;26.00;24.67;;;;;16.27;97.25;99208.16;6280792;20;3590933;-47
2023/06/02 01:49:23;;;;;;;;;32.00;27.33;;;;;16.17;97.00;99208.19;6278037;20;3615132;-53
2023/06/02 01:51:51;;;;;;;;;29.33;26.67;;;;;15.91;98.10;99207.88;6275347;20;3603376;-49
2023/06/02 01:54:22;;;;;;;;;28.13;26.50;;;;;15.88;98.82;99208.16;6294850;20;3604422;-47
2023/06/02 01:56:51;;;;;;;;;27.67;25.67;;;;;16.18;97.41;99203.63;6275529;20;3591913;-53
2023/06/02 01:59:20;;;;;;;;;27.67;26.33;;;;;15.97;97.41;99210.00;6311989;20;3603460;-48
2023/06/02 02:01:48;;;;;;;;;30.00;24.67;;;;;15.85;98.27;99208.44;6278876;20;3589905;-50
2023/06/02 02:04:17;;;;;;;;;26.00;25.67;;;;;15.76;98.74;99209.25;6278328;20;3589934;-46
2023/06/02 02:06:45;;;;;;;;;5.50;3.75;;;;;15.75;98.67;99205.69;6302090;20;1810801;-45
2023/06/02 02:09:14;;;;;;;;;34.33;31.33;;;;;15.62;99.58;99207.78;6309734;20;3583756;-47
2023/06/02 02:11:42;;;;;;;;;29.00;27.33;;;;;15.72;99.22;99202.44;6285451;20;3602361;-49
2023/06/02 02:14:13;;;;;;;;;31.33;28.33;;;;;15.76;98.84;99204.69;6285424;20;3585685;-49
2023/06/02 02:16:45;;;;;;;;;31.33;31.00;;;;;15.78;99.22;99207.28;6283578;20;3585689;-46
2023/06/02 02:19:14;;;;;;;;;24.00;21.33;;;;;15.92;99.41;99212.28;6286469;20;3571132;-48
2023/06/02 02:21:42;;;;;;;;;35.00;29.00;;;;;16.08;98.62;99208.16;6283183;20;3598189;-48
2023/06/02 02:24:11;;;;;;;;;26.00;25.00;;;;;15.75;99.14;99204.84;6284698;20;3585678;-48
2023/06/02 02:26:40;;;;;;;;;26.67;25.00;;;;;15.77;100.00;99202.84;6283331;20;3585645;-50
2023/06/02 02:29:08;;;;;;;;;25.67;25.67;;;;;15.74;100.00;99205.81;6288354;20;3594011;-50
2023/06/02 02:31:36;;;;;;;;;29.00;28.00;;;;;15.83;100.00;99210.44;6284824;20;3578529;-51
2023/06/02 02:34:05;;;;;;;;;28.67;26.33;;;;;15.65;100.00;99206.66;6317291;20;3600474;-47
2023/06/02 02:36:33;;;;;;;;;28.00;27.33;;;;;15.53;100.00;99203.19;6282840;20;3594575;-49
2023/06/02 02:39:00;;;;;;;;;28.00;23.50;;;;;15.52;100.00;99193.38;6285647;20;2656660;-51
2023/06/02 02:41:29;;;;;;;;;29.67;27.67;;;;;15.85;100.00;99199.44;6284288;20;3588817;-46
2023/06/02 02:43:58;;;;;;;;;35.00;31.33;;;;;15.66;100.00;99197.53;6281429;20;3603522;-51
2023/06/02 02:46:26;;;;;;;;;55.67;43.67;;;;;15.94;100.00;99206.72;6313766;20;3604459;-48
2023/06/02 02:48:54;;;;;;;;;31.33;30.67;;;;;15.87;99.38;99201.00;6283549;20;3580481;-47
2023/06/02 02:51:22;;;;;;;;;34.00;30.67;;;;;15.94;99.17;99204.03;6281038;20;3584622;-46
2023/06/02 02:53:51;;;;;;;;;30.00;28.00;;;;;16.04;98.92;99199.47;6280277;20;3585667;-49
2023/06/02 02:56:22;;;;;;;;;28.67;27.00;;;;;15.87;99.69;99194.75;6283672;20;3593037;-48
2023/06/02 02:58:50;;;;;;;;;31.33;25.33;;;;;15.69;100.00;99198.16;6285297;20;3597108;-48
2023/06/02 03:01:18;;;;;;;;;31.33;30.33;;;;;15.24;100.00;99192.25;6283584;20;3587756;-51
2023/06/02 03:03:47;;;;;;;;;35.00;29.67;;;;;15.30;100.00;99199.84;6286956;20;3583616;-47
2023/06/02 03:06:18;;;;;;;;;30.33;28.67;;;;;15.11;100.00;99190.66;6285614;20;3581547;-49
2023/06/02 03:08:47;;;;;;;;;28.00;26.67;;;;;15.03;100.00;99190.47;6277041;20;2851440;-47
2023/06/02 03:11:15;;;;;;;;;28.67;27.00;;;;;14.93;100.00;99189.59;6310068;20;3580487;-49
2023/06/02 03:13:44;;;;;;;;;30.00;28.00;;;;;15.10;100.00;99194.34;6283204;20;3581657;-46
2023/06/02 03:16:12;;;;;;;;;34.33;30.00;;;;;15.13;100.00;99190.50;6285057;20;3587876;-48
2023/06/02 03:18:41;;;;;;;;;27.67;27.67;;;;;15.10;100.00;99194.34;6280037;20;2847277;-46
2023/06/02 03:21:09;;;;;;;;;31.00;29.67;;;;;15.28;100.00;99199.13;6316087;20;3592047;-48
2023/06/02 03:23:40;;;;;;;;;31.33;28.67;;;;;15.17;100.00;99196.53;6281908;20;3580505;-51
2023/06/02 03:26:11;;;;;;;;;25.00;25.00;;;;;15.08;100.00;99198.16;6285946;20;3583602;-46
2023/06/02 03:28:41;;;;;;;;;35.33;32.33;;;;;15.47;100.00;99207.28;6282791;20;3583647;-46
2023/06/02 03:31:09;;;;;;;;;34.33;28.67;;;;;15.54;99.95;99207.63;6284581;20;3585872;-47
2023/06/02 03:33:38;;;;;;;;;32.00;30.00;;;;;15.63;100.00;99204.06;6284021;20;3591917;-48
2023/06/02 03:36:07;;;;;;;;;28.67;26.67;;;;;15.51;99.46;99202.50;6282580;20;3589917;-47
2023/06/02 03:38:36;;;;;;;;;32.67;30.67;;;;;15.70;100.00;99201.72;6281004;20;3588859;-48
2023/06/02 03:41:04;;;;;;;;;28.67;24.33;;;;;15.63;99.79;99203.22;6286249;20;3589870;-49
2023/06/02 03:43:32;;;;;;;;;30.67;27.67;;;;;15.67;99.32;99205.50;6282717;20;3602867;-50
2023/06/02 03:46:01;;;;;;;;;31.00;27.00;;;;;16.08;98.35;99197.34;6283561;20;3602433;-48
2023/06/02 03:48:29;;;;;;;;;28.33;25.67;;;;;16.34;96.59;99203.88;6284041;20;3596857;-48
2023/06/02 03:50:58;;;;;;;;;24.67;23.00;;;;;16.50;95.60;99207.88;6281790;20;3598185;-50
2023/06/02 03:53:26;;;;;;;;;29.33;28.00;;;;;16.63;95.50;99203.88;6284239;20;3581533;-51
2023/06/02 03:55:55;;;;;;;;;28.00;25.67;;;;;16.52;95.68;99205.88;6281049;20;3604504;-49
2023/06/02 03:58:23;;;;;;;;;24.33;23.00;;;;;16.54;96.14;99198.47;6312312;20;3590960;-47
2023/06/02 04:00:51;;;;;;;;;30.67;25.67;;;;;16.59;95.30;99212.44;6281853;20;3601303;-48
2023/06/02 04:03:20;;;;;;;;;28.00;24.00;;;;;16.58;96.52;99203.44;6283641;20;3600350;-49
2023/06/02 04:05:50;;;;;;;;;33.67;29.00;;;;;16.91;94.51;99203.16;6283249;20;3595032;-47
2023/06/02 04:08:18;;;;;;;;;29.33;27.00;;;;;16.93;94.22;99203.81;6282672;20;3585677;-48
2023/06/02 04:10:46;;;;;;;;;30.67;28.00;;;;;17.12;93.96;99206.50;6285951;20;3583670;-46
2023/06/02 04:13:14;;;;;;;;;31.00;27.00;;;;;17.12;93.72;99209.22;6283254;20;3531502;-47
2023/06/02 04:15:43;;;;;;;;;28.00;27.67;;;;;17.30;93.50;99212.84;6314657;20;3593141;-47
2023/06/02 04:18:12;;;;;;;;;26.67;25.67;;;;;17.39;91.79;99211.09;6279901;20;3600276;-46
2023/06/02 04:20:40;;;;;;;;;25.67;24.67;;;;;17.51;91.16;99209.06;6285053;20;3603385;-52
2023/06/02 04:23:09;;;;;;;;;20.67;20.67;;;;;17.67;90.41;99203.81;6281308;20;3579443;-47
2023/06/02 04:25:37;;;;;;;;;28.33;24.67;;;;;17.89;90.83;99207.16;6284867;20;3608696;-46
2023/06/02 04:28:07;;;;;;;;;24.33;21.67;;;;;18.00;89.70;99206.91;6281185;20;2847398;-47
2023/06/02 04:30:37;;;;;;;;;27.67;25.00;;;;;18.31;88.44;99212.00;6309220;20;3594214;-49
2023/06/02 04:33:06;;;;;;;;;26.33;26.33;;;;;18.40;88.39;99209.19;6281743;20;3581541;-49
2023/06/02 04:35:35;;;;;;;;;28.00;25.00;;;;;18.83;87.12;99212.97;6281085;20;3585798;-47
2023/06/02 04:38:03;;;;;;;;;28.67;27.33;;;;;19.23;85.69;99213.38;6282542;20;3600282;-47
2023/06/02 04:40:32;;;;;;;;;32.67;29.33;;;;;19.38;85.35;99211.78;6283804;20;3588804;-47
2023/06/02 04:43:00;;;;;;;;;31.00;28.50;;;;;19.12;86.18;99206.34;6284281;20;2725320;-51
2023/06/02 04:45:28;;;;;;;;;33.67;29.33;;;;;18.85;88.35;99201.91;6312955;20;3597156;-52
2023/06/02 04:47:56;;;;;;;;;31.67;27.67;;;;;18.88;89.39;99209.78;6282978;20;3589909;-53
2023/06/02 04:50:25;;;;;;;;;26.67;25.67;;;;;19.03;89.11;99210.88;6279348;20;3585727;-53
2023/06/02 04:52:54;;;;;;;;;28.67;26.00;;;;;19.43;87.61;99206.69;6283075;20;3600253;-50
2023/06/02 04:55:22;;;;;;;;;23.00;22.00;;;;;20.03;82.68;99213.03;6284066;20;3586849;-49
2023/06/02 04:57:51;;;;;;;;;26.33;23.00;;;;;20.71;78.24;99204.63;6281180;20;3584730;-48
2023/06/02 05:00:19;;;;;;;;;25.67;23.00;;;;;20.36;79.73;99205.78;6278015;20;3595058;-48
2023/06/02 05:02:48;;;;;;;;;26.67;24.00;;;;;20.18;80.12;99208.66;6281884;20;3602463;-46
2023/06/02 05:05:16;;;;;;;;;23.00;21.50;;;;;20.51;79.79;99216.84;6278040;20;2836798;-52
2023/06/02 05:07:44;;;;;;;;;25.00;22.00;;;;;20.65;77.33;99215.38;6280270;20;3582580;-46
2023/06/02 05:10:13;;;;;;;;;20.67;20.67;;;;;21.08;79.75;99211.41;6277988;20;3581982;-49
2023/06/02 05:12:42;;;;;;;;;27.00;23.33;;;;;20.63;83.04;99218.25;6279614;20;3591951;-47
2023/06/02 05:15:10;;;;;;;;;24.67;23.00;;;;;20.64;81.18;99224.56;6278755;20;3588780;-52
2023/06/02 05:17:38;;;;;;;;;26.00;21.00;;;;;21.08;76.64;99222.31;6274134;20;3584664;-47
2023/06/02 05:20:07;;;;;;;;;25.67;24.00;;;;;21.50;77.84;99225.84;6281071;20;3597255;-49
2023/06/02 05:22:35;;;;;;;;;26.00;23.00;;;;;21.61;79.05;99229.00;6284191;20;3600290;-45
2023/06/02 05:25:04;;;;;;;;;25.00;25.00;;;;;21.95;78.05;99224.25;6283934;20;3596085;-47
2023/06/02 05:27:35;;;;;;;;;24.33;23.00;;;;;22.23;74.19;99230.13;6283229;20;3584660;-49
2023/06/02 05:30:04;;;;;;;;;26.00;24.33;;;;;22.40;77.33;99228.97;6281602;20;3600280;-47
2023/06/02 05:32:32;;;;;;;;;26.00;23.00;;;;;22.36;78.11;99227.63;6287795;20;3596266;-49
2023/06/02 05:35:01;;;;;;;;;24.67;23.67;;;;;22.49;76.77;99233.34;6291203;20;3599199;-48
2023/06/02 05:37:29;;;;;;;;;28.33;27.00;;;;;22.36;75.88;99227.63;6283082;20;3581519;-45
2023/06/02 05:39:57;;;;;;;;;22.00;20.00;;;;;22.53;72.42;99231.94;6282118;20;3576386;-50
2023/06/02 05:42:27;;;;;;;;;28.00;25.75;;;;;22.78;68.77;99231.75;6289257;20;3611947;-48
2023/06/02 05:44:55;;;;;;;;;22.67;22.33;;;;;22.82;69.81;99227.59;6321240;20;3588839;-51
2023/06/02 05:47:25;;;;;;;;;21.33;20.33;;;;;23.15;66.51;99238.31;6288036;20;3583601;-58
2023/06/02 05:49:54;;;;;;;;;23.00;19.00;;;;;23.29;65.01;99237.44;6287833;20;3555597;-59
2023/06/02 05:52:22;;;;;;;;;20.00;18.67;;;;;23.29;63.78;99239.34;6288092;20;3572120;-59
2023/06/02 05:54:50;;;;;;;;;21.00;21.00;;;;;23.20;65.53;99241.34;6285965;20;3569109;-59
2023/06/02 05:57:19;;;;;;;;;20.33;19.67;;;;;23.52;63.75;99233.78;6281578;20;2844078;-58
2023/06/02 05:59:48;;;;;;;;;18.00;18.00;;;;;23.66;66.00;99239.25;6315527;20;3585705;-59
2023/06/02 06:02:16;;;;;;;;;20.33;18.33;;;;;23.76;65.74;99236.25;6286553;20;3562806;-59
2023/06/02 06:04:44;;;;;;;;;18.67;17.33;;;;;23.94;64.34;99243.25;6286199;20;3560680;-59
2023/06/02 06:07:12;;;;;;;;;17.33;16.33;;;;;24.29;62.62;99241.53;6284026;20;3558741;-59
2023/06/02 06:09:41;;;;;;;;;19.67;17.00;;;;;24.34;61.19;99243.72;6283150;20;3577349;-59
2023/06/02 06:12:09;;;;;;;;;18.00;15.50;;;;;24.38;64.38;99234.03;6278597;20;2822241;-59
2023/06/02 06:14:37;;;;;;;;;21.33;18.67;;;;;24.60;61.63;99238.53;6285873;20;3563874;-59
2023/06/02 06:17:05;;;;;;;;;19.00;19.00;;;;;24.78;61.89;99245.44;6284684;20;3574251;-58
2023/06/02 06:19:34;;;;;;;;;24.67;20.00;;;;;24.90;61.17;99239.22;6288101;20;3580619;-59
2023/06/02 06:22:02;;;;;;;;;21.67;21.00;;;;;25.26;59.80;99242.94;6288851;20;3575264;-59
2023/06/02 06:24:30;;;;;;;;;20.33;19.00;;;;;25.16;61.81;99243.25;6288945;20;3557567;-58
2023/06/02 06:26:59;;;;;;;;;20.33;19.67;;;;;25.31;60.24;99244.03;6285243;20;3572104;-55
2023/06/02 06:29:27;;;;;;;;;17.67;17.00;;;;;25.80;58.01;99244.94;6318308;20;3563834;-59
2023/06/02 06:31:56;;;;;;;;;15.00;15.00;;;;;25.83;53.87;99247.31;6285012;20;3532799;-59
2023/06/02 06:34:24;;;;;;;;;19.00;16.67;;;;;26.04;55.40;99243.59;6316635;20;3561845;-60
2023/06/02 06:36:53;;;;;;;;;15.33;15.33;;;;;26.04;52.87;99249.09;6323013;20;3544009;-59
2023/06/02 06:39:21;;;;;;;;;15.33;14.67;;;;;25.79;53.01;99243.25;6317292;20;3554601;-59
2023/06/02 06:41:50;;;;;;;;;18.33;17.33;;;;;26.00;54.38;99256.06;6284259;20;2827361;-59
2023/06/02 06:44:18;;;;;;;;;16.33;16.00;;;;;26.40;54.11;99248.78;6319095;20;3549296;-60
2023/06/02 06:46:46;;;;;;;;;17.50;16.00;;;;;26.85;50.37;99254.63;6284982;20;2831561;-60
2023/06/02 06:49:14;;;;;;;;;17.00;17.00;;;;;26.81;49.98;99256.13;6281369;20;2833603;-59
2023/06/02 06:51:42;;;;;;;;;16.67;15.33;;;;;27.38;48.96;99263.97;6283316;20;3559708;-60
2023/06/02 06:54:11;;;;;;;;;13.50;13.50;;;;;27.72;48.22;99260.94;6282792;20;2814876;-59
2023/06/02 06:56:40;;;;;;;;;16.00;15.00;;;;;27.94;47.35;99264.31;6287242;20;3552911;-60
2023/06/02 06:59:09;;;;;;;;;18.67;18.00;;;;;27.78;48.33;99268.38;6316326;20;3564890;-59
2023/06/02 07:01:38;;;;;;;;;17.67;16.67;;;;;27.51;48.59;99270.31;6285521;20;3554538;-60
2023/06/02 07:04:07;;;;;;;;;14.50;14.50;;;;;28.33;46.47;99267.09;6282291;20;2811853;-60
2023/06/02 07:06:39;;;;;;;;;17.00;14.00;;;;;27.89;47.69;99266.03;6291655;20;3552475;-61
2023/06/02 07:09:08;;;;;;;;;18.00;18.00;;;;;28.19;48.23;99264.41;6318638;20;3567994;-60
2023/06/02 07:11:36;;;;;;;;;18.00;18.00;;;;;28.32;48.22;99259.91;6284868;20;3569041;-60
2023/06/02 07:14:05;;;;;;;;;18.00;15.00;;;;;28.79;46.74;99260.50;6286548;20;3559035;-60
2023/06/02 07:16:45;;;;;;;;;19.00;17.00;;;;;28.84;46.87;99255.16;6281664;20;2831634;-59
2023/06/02 07:19:14;;;;;;;;;15.50;15.50;;;;;29.12;46.72;99259.41;6285657;20;2823357;-60
2023/06/02 07:21:42;;;;;;;;;15.33;15.33;;;;;29.15;47.28;99261.72;6285399;20;3550276;-59
2023/06/02 07:24:11;;;;;;;;;18.67;17.67;;;;;28.95;45.34;99254.44;6314952;20;3575260;-58
2023/06/02 07:26:42;;;;;;;;;20.00;14.00;;;;;28.29;47.18;99260.34;6317771;20;3564906;-59
2023/06/02 07:29:10;;;;;;;;;17.00;17.00;;;;;28.70;46.44;99259.06;6284325;20;2829436;-60
2023/06/02 07:31:43;;;;;;;;;16.67;15.33;;;;;29.00;46.34;99257.38;6287119;20;3558607;-60
2023/06/02 07:34:11;;;;;;;;;18.33;18.33;;;;;28.99;46.37;99260.34;6288184;20;3566916;-60
2023/06/02 07:36:40;;;;;;;;;14.67;13.67;;;;;28.73;44.80;99258.66;6285878;20;3541977;-60
2023/06/02 07:39:08;;;;;;;;;14.00;14.00;;;;;29.05;45.96;99252.03;6315120;20;2807725;-60
2023/06/02 07:41:36;;;;;;;;;18.33;17.00;;;;;29.41;45.49;99252.34;6291443;20;3566973;-60
2023/06/02 07:44:04;;;;;;;;;16.67;16.67;;;;;29.21;43.79;99252.56;6285509;20;3566903;-60
2023/06/02 07:46:32;;;;;;;;;15.00;14.33;;;;;29.16;43.49;99249.63;6286444;20;3539841;-60
2023/06/02 07:49:01;;;;;;;;;14.00;14.00;;;;;29.26;45.87;99249.94;6313603;20;3545241;-60
2023/06/02 07:51:29;;;;;;;;;14.00;14.00;;;;;28.77;43.81;99262.63;6314984;20;3537734;-60
2023/06/02 07:53:57;;;;;;;;;23.00;16.67;;;;;29.39;43.58;99249.00;6317872;20;3583606;-60
2023/06/02 07:56:25;;;;;;;;;15.00;15.00;;;;;30.31;42.72;99255.44;6284690;20;3547194;-60
2023/06/02 07:58:53;;;;;;;;;14.33;13.00;;;;;29.61;40.18;99258.53;6287085;20;3533675;-60
2023/06/02 08:01:22;;;;;;;;;13.33;12.67;;;;;29.81;40.72;99258.34;6315216;20;2806638;-60
2023/06/02 08:03:51;;;;;;;;;15.00;15.00;;;;;29.85;41.97;99254.03;6316900;20;3544099;-60
2023/06/02 08:06:19;;;;;;;;;15.33;14.33;;;;;29.94;40.27;99252.66;6283098;20;3543341;-60
2023/06/02 08:08:47;;;;;;;;;17.00;15.00;;;;;30.17;40.69;99253.88;6285537;20;3548340;-48
2023/06/02 08:11:15;;;;;;;;;17.33;15.00;;;;;30.24;40.85;99256.59;6283648;20;3554443;-46
2023/06/02 08:13:44;;;;;;;;;15.67;14.00;;;;;30.13;41.39;99253.50;6285103;20;3547252;-48
2023/06/02 08:16:12;;;;;;;;;14.50;14.50;;;;;29.64;40.74;99257.22;6280642;20;2809758;-48
2023/06/02 08:18:55;;;;;;;;;16.33;14.67;;;;;29.87;39.20;99257.44;6287688;20;3551315;-51
2023/06/02 08:21:24;;;;;;;;;17.33;15.33;;;;;30.59;37.62;99253.97;6285260;20;3550669;-48
2023/06/02 08:23:52;;;;;;;;;15.00;13.33;;;;;30.37;38.91;99257.25;6287569;20;3536725;-47
2023/06/02 08:26:22;;;;;;;;;16.33;15.33;;;;;30.46;38.86;99254.16;6317048;20;3552346;-47
2023/06/02 08:28:50;;;;;;;;;15.00;15.00;;;;;29.04;43.06;99257.75;6286762;20;3548138;-48
2023/06/02 08:31:22;;;;;;;;;21.33;16.00;;;;;28.35;42.80;99248.41;6283387;20;3567038;-45
2023/06/02 08:33:52;;;;;;;;;20.33;16.33;;;;;27.75;43.86;99254.13;6281260;20;2830521;-50
2023/06/02 08:36:20;;;;;;;;;17.00;15.67;;;;;27.33;44.78;99243.44;6315090;20;3560695;-48
2023/06/02 08:38:52;;;;;;;;;18.00;17.00;;;;;28.73;41.42;99253.97;6288562;20;3566965;-48
2023/06/02 08:41:20;;;;;;;;;15.00;15.00;;;;;27.92;43.75;99249.03;6281705;20;3541879;-47
2023/06/02 08:43:51;;;;;;;;;17.33;17.33;;;;;28.84;41.82;99253.22;6281446;20;2835793;-45
2023/06/02 08:46:20;;;;;;;;;16.67;14.33;;;;;30.01;40.34;99252.56;6311687;20;2811793;-46
2023/06/02 08:48:55;;;;;;;;;14.50;13.00;;;;;29.74;39.91;99250.13;6312331;20;2785768;-49
2023/06/02 08:51:24;;;;;;;;;15.67;15.67;;;;;30.26;39.17;99238.66;6279865;20;3561723;-50
2023/06/02 08:53:52;;;;;;;;;20.33;17.33;;;;;30.73;37.75;99249.94;6284564;20;3566387;-50
2023/06/02 08:56:21;;;;;;;;;14.00;14.00;;;;;30.56;36.29;99249.72;6288339;20;3539854;-46
2023/06/02 08:58:49;;;;;;;;;12.00;11.00;;;;;30.21;36.00;99243.19;6311979;20;3506535;-48
2023/06/02 09:01:17;;;;;;;;;16.67;16.67;;;;;30.00;36.49;99233.44;6314054;20;3558626;-51
2023/06/02 09:03:47;;;;;;;;;13.00;13.00;;;;;28.74;40.06;99232.69;6283236;20;2492019;-53
2023/06/02 09:06:18;;;;;;;;;12.00;12.00;;;;;28.80;41.30;99223.50;6318748;20;3535832;-48
2023/06/02 09:09:00;;;;;;;;;19.00;15.00;;;;;28.55;40.39;99227.09;6318742;20;2819069;-51
2023/06/02 09:11:30;;;;;;;;;14.50;14.00;;;;;28.09;41.25;99208.81;6286642;20;2813274;-48
2023/06/02 09:13:59;;;;;;;;;13.00;13.00;;;;;27.77;41.94;99222.50;6287510;20;2807568;-50
2023/06/02 09:16:40;;;;;;;;;16.00;16.00;;;;;27.49;42.56;99211.78;6291095;20;3550392;-46
2023/06/02 09:19:09;;;;;;;;;17.33;14.33;;;;;27.21;43.64;99225.84;6319451;20;3548230;-47
2023/06/02 09:21:37;;;;;;;;;15.67;15.00;;;;;27.30;43.24;99223.69;6323314;20;3550716;-53
2023/06/02 09:24:05;;;;;;;;;16.00;16.00;;;;;27.24;43.73;99225.41;6287673;20;3562802;-47
2023/06/02 09:26:37;;;;;;;;;19.33;18.33;;;;;27.25;43.26;99232.63;6289798;20;3564957;-47
2023/06/02 09:29:13;;;;;;;;;15.00;14.00;;;;;27.23;44.17;99220.97;6283628;20;3537895;-48
2023/06/02 09:31:44;;;;;;;;;17.67;16.67;;;;;27.79;42.78;99227.81;6322460;20;3563799;-48
2023/06/02 09:34:16;;;;;;;;;15.00;15.00;;;;;27.33;42.72;99220.50;6292775;20;3544041;-47
2023/06/02 09:36:48;;;;;;;;;16.00;14.00;;;;;27.31;42.31;99215.22;6317418;20;2823210;-48
2023/06/02 09:39:33;;;;;;;;;23.67;20.33;;;;;27.02;44.19;99215.66;6285426;20;2834721;-47
2023/06/02 09:42:02;;;;;;;;;18.50;15.00;;;;;26.33;46.05;99223.19;6316845;20;2815938;-47
2023/06/02 09:44:31;;;;;;;;;18.00;17.00;;;;;26.04;47.42;99225.19;6285277;20;2838236;-48
2023/06/02 09:47:01;;;;;;;;;15.33;15.33;;;;;25.29;49.94;99215.03;6320944;20;3548202;-51
2023/06/02 09:49:39;;;;;;;;;19.00;17.67;;;;;25.26;50.30;99226.44;6318501;20;3551268;-48
2023/06/02 09:52:16;;;;;;;;;17.00;16.33;;;;;24.92;49.74;99230.78;6289616;20;3571129;-53
2023/06/02 09:54:48;;;;;;;;;10.50;10.50;;;;;24.59;50.64;99236.81;6285624;20;2778394;-48
2023/06/02 09:57:17;;;;;;;;;15.00;15.00;;;;;23.99;56.88;99236.13;6319349;20;3550360;-45
2023/06/02 09:59:45;;;;;;;;;23.67;16.67;;;;;22.81;68.35;99233.28;6318489;20;3580460;-50
2023/06/02 10:02:14;;;;;;;;;20.33;18.67;;;;;22.14;74.65;99227.41;6287054;20;3567130;-50
2023/06/02 10:04:45;;;;;;;;;17.33;17.00;;;;;21.59;79.86;99224.75;6283849;20;2832642;-47
2023/06/02 10:07:23;;;;;;;;;19.00;18.00;;;;;21.19;82.07;99224.66;6314924;20;2833648;-48
2023/06/02 10:10:10;;;;;;;;;18.00;18.00;;;;;21.22;81.40;99224.34;6284402;20;2846164;-48
2023/06/02 10:13:23;;;;;;;;;18.33;16.33;;;;;21.05;82.99;99230.84;6317546;20;3562193;-48
2023/06/02 10:16:18;;;;;;;;;17.67;15.00;;;;;20.72;82.49;99228.16;6287347;20;3546095;-47
2023/06/02 10:18:55;;;;;;;;;19.67;17.00;;;;;20.71;85.52;99215.53;6320883;20;3572250;-48
2023/06/02 10:21:56;;;;;;;;;14.50;14.00;;;;;20.99;82.76;99212.44;6281969;20;2812922;-52
2023/06/02 10:24:42;;;;;;;;;20.00;18.00;;;;;21.35;82.82;99214.75;6285416;20;2826412;-50
2023/06/02 10:27:38;;;;;;;;;19.67;19.00;;;;;21.34;83.18;99205.69;6287936;20;3583647;-51
2023/06/02 10:30:07;;;;;;;;;15.50;14.00;;;;;21.53;86.10;99199.00;6282119;20;2810680;-52
2023/06/02 10:32:48;;;;;;;;;19.50;16.50;;;;;21.52;85.62;99199.19;6288524;20;2823208;-50
2023/06/02 10:35:17;;;;;;;;;16.00;16.00;;;;;21.39;80.82;99191.56;6285423;20;2833628;-46
2023/06/02 10:37:46;;;;;;;;;15.50;15.50;;;;;21.30;84.25;99185.25;6287384;20;2823294;-48
2023/06/02 10:40:15;;;;;;;;;16.50;15.00;;;;;21.77;84.55;99191.72;6284117;20;2813832;-44
2023/06/02 10:43:13;;;;;;;;;19.00;16.00;;;;;21.67;85.50;99192.81;6285204;20;2491945;-47
2023/06/02 10:45:42;;;;;;;;;14.00;13.00;;;;;21.86;78.51;99193.41;6285672;20;2777551;-48
2023/06/02 10:48:38;;;;;;;;;19.00;19.00;;;;;21.98;82.43;99196.56;6317311;20;2772236;-50
2023/06/02 10:51:09;;;;;;;;;21.33;20.67;;;;;22.31;79.37;99197.25;6286295;20;3589900;-47
2023/06/02 10:54:02;;;;;;;;;19.67;18.00;;;;;22.53;80.34;99192.78;6286597;20;3570156;-46
2023/06/02 10:56:36;;;;;;;;;19.67;16.00;;;;;22.44;77.64;99181.06;6287134;20;3567968;-47
2023/06/02 10:59:05;;;;;;;;;21.50;18.00;;;;;22.57;77.07;99184.03;6285827;20;2831516;-48
2023/06/02 11:02:01;;;;;;;;;9.00;8.00;;;;;23.00;71.17;99184.34;6286195;20;2761742;-50
2023/06/02 11:04:36;;;;;;;;;19.00;19.00;;;;;23.26;74.86;99180.31;6318419;20;3572249;-48
2023/06/02 11:07:25;;;;;;;;;16.00;16.00;;;;;23.35;73.75;99184.63;6286088;20;3561698;-48
2023/06/02 11:09:58;;;;;;;;;18.33;18.33;;;;;23.60;78.94;99190.69;6286586;20;3566933;-45
2023/06/02 11:12:50;;;;;;;;;18.00;17.00;;;;;23.39;72.67;99190.59;6285209;20;2831538;-46
2023/06/02 11:15:20;;;;;;;;;20.00;16.33;;;;;23.71;69.61;99194.81;6286534;20;3571259;-49
2023/06/02 11:17:48;;;;;;;;;14.33;14.33;;;;;23.18;70.19;99202.31;6285924;20;3525297;-46